createdAt,value
2019-02-18T00:00:30.883Z,10.90
2019-02-18T00:01:05.975Z,11.80
2019-02-18T00:01:41.191Z,11.30
2019-02-18T00:02:16.632Z,10.30
2019-02-18T00:02:52.066Z,11.20
2019-02-18T00:03:27.437Z,11.80
2019-02-18T00:04:03.020Z,11.20
2019-02-18T00:04:38.345Z,10.90
2019-02-18T00:05:13.918Z,12.20
2019-02-18T00:05:49.319Z,12.20
2019-02-18T00:06:24.928Z,11.50
2019-02-18T00:07:00.151Z,11.40
2019-02-18T00:07:35.677Z,10.80
2019-02-18T00:08:10.948Z,10.90
2019-02-18T00:08:46.519Z,10.60
2019-02-18T00:09:21.802Z,10.70
2019-02-18T00:09:57.027Z,11.80
2019-02-18T00:10:32.109Z,11.80
2019-02-18T00:11:07.427Z,10.70
2019-02-18T00:11:42.634Z,10.80
2019-02-18T00:12:18.055Z,12.40
2019-02-18T00:12:53.580Z,12.80
2019-02-18T00:13:29.098Z,11.70
2019-02-18T00:14:04.675Z,12.80
2019-02-18T00:14:40.108Z,12.10
2019-02-18T00:15:15.497Z,12.30
2019-02-18T00:15:50.907Z,12.00
2019-02-18T00:16:26.722Z,11.70
2019-02-18T00:17:02.208Z,12.10
2019-02-18T00:17:37.525Z,12.40
2019-02-18T00:18:13.147Z,12.90
2019-02-18T00:18:48.265Z,11.80
2019-02-18T00:19:23.348Z,11.40
2019-02-18T00:19:58.786Z,10.70
2019-02-18T00:20:33.964Z,13.10
2019-02-18T00:21:09.489Z,13.70
2019-02-18T00:21:44.888Z,12.80
2019-02-18T00:22:21.602Z,12.20
2019-02-18T00:22:55.334Z,12.70
2019-02-18T00:23:30.675Z,12.70
2019-02-18T00:24:06.199Z,13.00
2019-02-18T00:24:41.311Z,12.40
2019-02-18T00:25:16.626Z,11.80
2019-02-18T00:25:52.041Z,11.30
2019-02-18T00:26:27.363Z,12.20
2019-02-18T00:27:02.971Z,12.10
2019-02-18T00:27:38.284Z,12.00
2019-02-18T00:28:13.471Z,11.80
2019-02-18T00:28:48.630Z,11.60
2019-02-18T00:29:23.722Z,12.40
2019-02-18T00:29:58.855Z,12.80
2019-02-18T00:30:34.440Z,11.20
2019-02-18T00:31:10.025Z,11.60
2019-02-18T00:31:45.285Z,12.20
2019-02-18T00:32:20.683Z,11.20
2019-02-18T00:32:56.023Z,11.10
2019-02-18T00:33:31.387Z,11.30
2019-02-18T00:34:06.621Z,11.20
2019-02-18T00:34:41.941Z,11.40
2019-02-18T00:35:17.138Z,11.00
2019-02-18T00:35:52.453Z,11.20
2019-02-18T00:36:27.734Z,11.40
2019-02-18T00:37:03.054Z,11.90
2019-02-18T00:37:38.262Z,11.90
2019-02-18T00:38:13.607Z,11.70
2019-02-18T00:38:48.837Z,11.40
2019-02-18T00:39:24.219Z,11.50
2019-02-18T00:39:59.913Z,11.20
2019-02-18T00:40:35.212Z,11.60
2019-02-18T00:41:10.518Z,11.20
2019-02-18T00:41:45.828Z,10.90
2019-02-18T00:42:21.517Z,11.00
2019-02-18T00:42:56.935Z,11.40
2019-02-18T00:43:32.262Z,11.40
2019-02-18T00:44:07.769Z,12.20
2019-02-18T00:44:43.002Z,11.80
2019-02-18T00:45:18.119Z,11.40
2019-02-18T00:45:53.434Z,10.40
2019-02-18T00:46:28.710Z,10.80
2019-02-18T00:47:03.923Z,11.60
2019-02-18T00:47:39.225Z,11.50
2019-02-18T00:48:14.641Z,11.20
2019-02-18T00:48:50.267Z,11.60
2019-02-18T00:49:25.465Z,11.80
2019-02-18T00:50:00.924Z,11.80
2019-02-18T00:50:36.207Z,11.80
2019-02-18T00:51:11.920Z,10.70
2019-02-18T00:51:47.237Z,11.30
2019-02-18T00:52:22.362Z,11.00
2019-02-18T00:52:57.790Z,11.00
2019-02-18T00:53:33.162Z,11.30
2019-02-18T00:54:08.308Z,11.10
2019-02-18T00:54:43.498Z,11.50
2019-02-18T00:55:18.971Z,11.10
2019-02-18T00:55:54.353Z,10.70
2019-02-18T00:56:29.981Z,10.70
2019-02-18T00:57:05.306Z,10.50
2019-02-18T00:57:40.818Z,10.60
2019-02-18T00:58:16.036Z,10.40
2019-02-18T00:58:51.323Z,10.20
2019-02-18T00:59:26.532Z,10.30
2019-02-18T01:00:01.713Z,11.20
2019-02-18T01:00:37.172Z,11.70
2019-02-18T01:01:12.698Z,10.40
2019-02-18T01:01:47.989Z,10.90
2019-02-18T01:02:23.315Z,11.00
2019-02-18T01:02:58.992Z,10.00
2019-02-18T01:03:34.108Z,10.10
2019-02-18T01:04:09.199Z,10.70
2019-02-18T01:04:44.731Z,9.60
2019-02-18T01:05:20.020Z,9.20
2019-02-18T01:05:55.664Z,10.60
2019-02-18T01:06:30.752Z,10.30
2019-02-18T01:07:05.987Z,11.10
2019-02-18T01:07:41.411Z,11.50
2019-02-18T01:08:17.011Z,9.90
2019-02-18T01:08:52.310Z,9.00
2019-02-18T01:09:27.525Z,9.90
2019-02-18T01:10:02.922Z,10.00
2019-02-18T01:10:38.345Z,10.30
2019-02-18T01:11:13.760Z,10.60
2019-02-18T01:11:48.948Z,11.20
2019-02-18T01:12:24.047Z,10.60
2019-02-18T01:12:59.337Z,10.30
2019-02-18T01:13:34.871Z,11.10
2019-02-18T01:14:10.151Z,11.60
2019-02-18T01:14:45.575Z,11.30
2019-02-18T01:15:20.889Z,10.70
2019-02-18T01:15:55.991Z,10.70
2019-02-18T01:16:31.263Z,10.90
2019-02-18T01:17:06.458Z,9.80
2019-02-18T01:17:42.092Z,9.60
2019-02-18T01:18:17.514Z,10.10
2019-02-18T01:18:52.992Z,10.10
2019-02-18T01:19:28.395Z,9.60
2019-02-18T01:20:03.601Z,10.20
2019-02-18T01:20:38.812Z,10.10
2019-02-18T01:21:14.301Z,10.30
2019-02-18T01:21:49.650Z,10.50
2019-02-18T01:22:24.859Z,10.30
2019-02-18T01:23:00.249Z,10.00
2019-02-18T01:23:35.571Z,10.20
2019-02-18T01:24:10.959Z,10.30
2019-02-18T01:24:46.479Z,10.60
2019-02-18T01:25:21.708Z,10.70
2019-02-18T01:25:57.101Z,10.60
2019-02-18T01:26:32.414Z,10.90
2019-02-18T01:27:07.842Z,10.80
2019-02-18T01:27:43.146Z,10.40
2019-02-18T01:28:18.645Z,10.80
2019-02-18T01:28:54.253Z,10.80
2019-02-18T01:29:29.859Z,9.20
2019-02-18T01:30:05.042Z,9.60
2019-02-18T01:30:40.471Z,10.10
2019-02-18T01:31:15.549Z,10.00
2019-02-18T01:31:50.763Z,9.90
2019-02-18T01:32:26.097Z,10.30
2019-02-18T01:33:01.503Z,10.40
2019-02-18T01:33:36.919Z,10.80
2019-02-18T01:34:12.208Z,10.70
2019-02-18T01:34:47.506Z,11.30
2019-02-18T01:35:22.835Z,10.90
2019-02-18T01:35:58.040Z,10.50
2019-02-18T01:36:33.466Z,11.10
2019-02-18T01:37:08.965Z,11.60
2019-02-18T01:37:46.167Z,10.80
2019-02-18T01:38:20.000Z,10.60
2019-02-18T01:38:55.491Z,10.70
2019-02-18T01:39:30.906Z,10.00
2019-02-18T01:40:06.223Z,9.90
2019-02-18T01:40:41.637Z,9.90
2019-02-18T01:41:16.908Z,10.10
2019-02-18T01:41:52.320Z,10.90
2019-02-18T01:42:27.500Z,11.50
2019-02-18T01:43:03.142Z,10.60
2019-02-18T01:43:39.539Z,10.50
2019-02-18T01:44:14.843Z,11.00
2019-02-18T01:44:50.264Z,11.30
2019-02-18T01:45:25.560Z,10.30
2019-02-18T01:46:00.769Z,10.50
2019-02-18T01:46:35.863Z,10.50
2019-02-18T01:47:11.559Z,10.80
2019-02-18T01:47:47.083Z,10.30
2019-02-18T01:48:22.431Z,10.80
2019-02-18T01:48:57.545Z,10.40
2019-02-18T01:49:32.919Z,9.70
2019-02-18T01:50:08.437Z,10.50
2019-02-18T01:50:43.937Z,11.00
2019-02-18T01:51:19.143Z,10.80
2019-02-18T01:51:54.453Z,11.70
2019-02-18T01:52:29.789Z,11.60
2019-02-18T01:53:05.202Z,11.60
2019-02-18T01:53:40.512Z,10.90
2019-02-18T01:54:15.935Z,10.00
2019-02-18T01:54:51.479Z,10.30
2019-02-18T01:55:26.979Z,10.30
2019-02-18T01:56:03.022Z,10.60
2019-02-18T01:56:38.206Z,10.50
2019-02-18T01:57:13.621Z,11.30
2019-02-18T01:57:48.907Z,10.80
2019-02-18T01:58:24.218Z,9.90
2019-02-18T01:58:59.956Z,9.90
2019-02-18T01:59:35.344Z,10.30
2019-02-18T02:00:11.004Z,10.70
2019-02-18T02:00:46.185Z,10.70
2019-02-18T02:01:21.731Z,10.20
2019-02-18T02:01:56.936Z,10.60
2019-02-18T02:02:32.265Z,10.50
2019-02-18T02:03:07.889Z,11.10
2019-02-18T02:03:43.192Z,11.10
2019-02-18T02:04:18.751Z,11.50
2019-02-18T02:04:54.193Z,12.10
2019-02-18T02:05:29.427Z,11.50
2019-02-18T02:06:04.852Z,10.60
2019-02-18T02:06:40.252Z,10.30
2019-02-18T02:07:15.678Z,10.50
2019-02-18T02:07:56.238Z,11.10
2019-02-18T02:08:26.592Z,11.00
2019-02-18T02:09:01.805Z,11.20
2019-02-18T02:09:37.956Z,10.70
2019-02-18T02:10:13.039Z,10.50
2019-02-18T02:10:48.567Z,10.40
2019-02-18T02:11:24.091Z,10.80
2019-02-18T02:11:59.411Z,10.30
2019-02-18T02:12:34.999Z,10.50
2019-02-18T02:13:10.434Z,10.60
2019-02-18T02:13:45.926Z,10.40
2019-02-18T02:14:21.433Z,10.30
2019-02-18T02:14:56.655Z,10.30
2019-02-18T02:15:32.166Z,9.70
2019-02-18T02:16:07.649Z,9.90
2019-02-18T02:16:43.662Z,10.70
2019-02-18T02:17:19.187Z,10.80
2019-02-18T02:17:54.383Z,10.40
2019-02-18T02:18:29.832Z,9.90
2019-02-18T02:19:05.125Z,10.40
2019-02-18T02:19:40.640Z,10.10
2019-02-18T02:20:16.057Z,10.30
2019-02-18T02:20:51.573Z,10.70
2019-02-18T02:21:26.886Z,10.50
2019-02-18T02:22:02.389Z,10.80
2019-02-18T02:22:37.726Z,10.20
2019-02-18T02:23:12.998Z,10.30
2019-02-18T02:23:48.534Z,10.40
2019-02-18T02:24:23.923Z,10.20
2019-02-18T02:24:59.014Z,10.60
2019-02-18T02:25:34.543Z,10.80
2019-02-18T02:26:10.248Z,10.80
2019-02-18T02:26:45.452Z,10.70
2019-02-18T02:27:20.985Z,10.30
2019-02-18T02:27:56.269Z,11.30
2019-02-18T02:28:31.560Z,11.10
2019-02-18T02:29:07.535Z,10.10
2019-02-18T02:29:42.753Z,10.50
2019-02-18T02:30:18.130Z,9.70
2019-02-18T02:30:53.475Z,9.80
2019-02-18T02:31:28.669Z,9.90
2019-02-18T02:32:04.357Z,9.50
2019-02-18T02:32:39.567Z,10.00
2019-02-18T02:33:14.749Z,9.90
2019-02-18T02:33:50.048Z,9.30
2019-02-18T02:34:25.243Z,9.40
2019-02-18T02:35:00.637Z,9.80
2019-02-18T02:35:35.967Z,11.20
2019-02-18T02:36:11.174Z,11.10
2019-02-18T02:36:46.482Z,10.10
2019-02-18T02:37:21.673Z,10.60
2019-02-18T02:38:07.047Z,9.90
2019-02-18T02:38:32.114Z,10.20
2019-02-18T02:39:07.400Z,10.30
2019-02-18T02:39:42.806Z,10.10
2019-02-18T02:40:18.109Z,10.50
2019-02-18T02:40:53.555Z,10.10
2019-02-18T02:41:28.966Z,10.80
2019-02-18T02:42:04.489Z,10.30
2019-02-18T02:42:39.896Z,9.90
2019-02-18T02:43:15.208Z,9.90
2019-02-18T02:43:50.411Z,9.70
2019-02-18T02:44:25.899Z,10.40
2019-02-18T02:45:01.325Z,11.00
2019-02-18T02:45:36.686Z,11.20
2019-02-18T02:46:12.096Z,10.60
2019-02-18T02:46:47.648Z,10.40
2019-02-18T02:47:22.831Z,11.50
2019-02-18T02:47:58.353Z,11.00
2019-02-18T02:48:33.657Z,10.80
2019-02-18T02:49:09.158Z,11.10
2019-02-18T02:49:44.442Z,12.00
2019-02-18T02:50:19.644Z,11.40
2019-02-18T02:50:55.039Z,11.00
2019-02-18T02:51:30.376Z,11.20
2019-02-18T02:52:05.704Z,11.20
2019-02-18T02:52:41.225Z,10.50
2019-02-18T02:53:16.314Z,11.00
2019-02-18T02:53:51.524Z,10.70
2019-02-18T02:54:26.935Z,10.50
2019-02-18T02:55:02.458Z,11.30
2019-02-18T02:55:37.655Z,10.90
2019-02-18T02:56:13.262Z,10.90
2019-02-18T02:56:48.755Z,11.10
2019-02-18T02:57:23.996Z,10.90
2019-02-18T02:57:59.287Z,10.60
2019-02-18T02:58:34.705Z,10.20
2019-02-18T02:59:10.302Z,10.40
2019-02-18T02:59:45.516Z,10.90
2019-02-18T03:00:20.790Z,10.30
2019-02-18T03:00:56.105Z,10.90
2019-02-18T03:01:31.298Z,10.30
2019-02-18T03:02:06.608Z,10.50
2019-02-18T03:02:41.928Z,11.10
2019-02-18T03:03:17.526Z,11.40
2019-02-18T03:03:52.718Z,10.80
2019-02-18T03:04:28.228Z,9.60
2019-02-18T03:05:03.635Z,9.90
2019-02-18T03:05:38.735Z,10.60
2019-02-18T03:06:13.954Z,11.20
2019-02-18T03:06:49.546Z,11.40
2019-02-18T03:07:24.666Z,11.00
2019-02-18T03:07:59.983Z,11.80
2019-02-18T03:08:35.222Z,12.10
2019-02-18T03:09:11.005Z,12.10
2019-02-18T03:09:46.083Z,11.40
2019-02-18T03:10:21.185Z,12.20
2019-02-18T03:10:56.560Z,11.70
2019-02-18T03:11:31.779Z,11.30
2019-02-18T03:12:07.006Z,11.20
2019-02-18T03:12:42.196Z,10.80
2019-02-18T03:13:17.540Z,11.90
2019-02-18T03:13:53.021Z,11.00
2019-02-18T03:14:28.734Z,10.80
2019-02-18T03:15:04.336Z,11.40
2019-02-18T03:15:39.670Z,12.40
2019-02-18T03:16:15.075Z,12.70
2019-02-18T03:16:50.464Z,11.60
2019-02-18T03:17:25.881Z,10.50
2019-02-18T03:18:01.560Z,10.60
2019-02-18T03:18:37.195Z,11.70
2019-02-18T03:19:12.681Z,11.90
2019-02-18T03:19:47.992Z,11.80
2019-02-18T03:20:23.401Z,12.10
2019-02-18T03:20:58.579Z,11.80
2019-02-18T03:21:34.092Z,11.10
2019-02-18T03:22:09.476Z,10.80
2019-02-18T03:22:44.893Z,11.60
2019-02-18T03:23:20.413Z,11.90
2019-02-18T03:23:55.705Z,11.50
2019-02-18T03:24:30.811Z,11.20
2019-02-18T03:25:06.087Z,10.70
2019-02-18T03:25:41.480Z,11.80
2019-02-18T03:26:17.115Z,11.70
2019-02-18T03:26:52.428Z,11.30
2019-02-18T03:27:27.833Z,12.00
2019-02-18T03:28:03.514Z,11.50
2019-02-18T03:28:38.852Z,11.40
2019-02-18T03:29:14.153Z,11.40
2019-02-18T03:29:49.175Z,11.20
2019-02-18T03:30:24.413Z,11.00
2019-02-18T03:30:59.709Z,11.70
2019-02-18T03:31:34.902Z,11.30
2019-02-18T03:32:10.188Z,11.70
2019-02-18T03:32:45.497Z,11.70
2019-02-18T03:33:21.099Z,11.30
2019-02-18T03:33:56.214Z,11.50
2019-02-18T03:34:31.866Z,11.50
2019-02-18T03:35:07.846Z,11.00
2019-02-18T03:35:43.047Z,11.00
2019-02-18T03:36:18.429Z,11.50
2019-02-18T03:36:53.631Z,11.70
2019-02-18T03:37:28.710Z,11.70
2019-02-18T03:38:04.126Z,12.10
2019-02-18T03:38:39.325Z,11.30
2019-02-18T03:39:14.662Z,10.70
2019-02-18T03:39:50.173Z,11.10
2019-02-18T03:40:25.565Z,11.30
2019-02-18T03:41:03.376Z,11.50
2019-02-18T03:41:36.192Z,11.20
2019-02-18T03:42:11.382Z,11.00
2019-02-18T03:42:46.595Z,10.90
2019-02-18T03:43:21.785Z,11.70
2019-02-18T03:43:57.007Z,12.10
2019-02-18T03:44:32.339Z,11.40
2019-02-18T03:45:07.954Z,11.10
2019-02-18T03:45:43.255Z,11.10
2019-02-18T03:46:18.859Z,11.90
2019-02-18T03:46:54.359Z,11.70
2019-02-18T03:47:29.468Z,12.00
2019-02-18T03:48:04.783Z,12.60
2019-02-18T03:48:39.797Z,12.00
2019-02-18T03:49:15.394Z,12.80
2019-02-18T03:49:50.521Z,12.50
2019-02-18T03:50:26.068Z,11.50
2019-02-18T03:51:01.545Z,11.60
2019-02-18T03:51:37.046Z,12.00
2019-02-18T03:52:12.352Z,11.90
2019-02-18T03:52:48.076Z,11.80
2019-02-18T03:53:23.458Z,12.10
2019-02-18T03:53:58.658Z,11.80
2019-02-18T03:54:33.963Z,11.20
2019-02-18T03:55:09.416Z,12.30
2019-02-18T03:55:44.695Z,12.20
2019-02-18T03:56:20.110Z,10.00
2019-02-18T03:56:55.412Z,11.10
2019-02-18T03:57:30.810Z,12.20
2019-02-18T03:58:06.113Z,11.90
2019-02-18T03:58:41.399Z,11.00
2019-02-18T03:59:16.822Z,11.10
2019-02-18T03:59:52.315Z,12.40
2019-02-18T04:00:27.557Z,11.70
2019-02-18T04:01:02.787Z,11.50
2019-02-18T04:01:38.261Z,11.80
2019-02-18T04:02:13.588Z,11.60
2019-02-18T04:02:48.887Z,11.30
2019-02-18T04:03:24.191Z,12.20
2019-02-18T04:03:59.273Z,11.50
2019-02-18T04:04:34.580Z,11.80
2019-02-18T04:05:10.187Z,11.60
2019-02-18T04:05:45.210Z,11.80
2019-02-18T04:06:20.418Z,12.00
2019-02-18T04:06:55.825Z,12.10
2019-02-18T04:07:31.421Z,12.10
2019-02-18T04:08:06.504Z,12.10
2019-02-18T04:08:43.192Z,11.10
2019-02-18T04:09:17.370Z,11.20
2019-02-18T04:09:52.740Z,11.00
2019-02-18T04:10:28.044Z,11.30
2019-02-18T04:11:03.254Z,11.70
2019-02-18T04:11:38.680Z,11.50
2019-02-18T04:12:14.012Z,11.30
2019-02-18T04:12:49.299Z,10.40
2019-02-18T04:13:24.611Z,10.50
2019-02-18T04:14:00.114Z,11.90
2019-02-18T04:14:35.626Z,12.60
2019-02-18T04:15:11.014Z,12.20
2019-02-18T04:15:46.420Z,11.90
2019-02-18T04:16:21.862Z,12.30
2019-02-18T04:16:57.152Z,12.00
2019-02-18T04:17:32.769Z,12.40
2019-02-18T04:18:08.147Z,12.30
2019-02-18T04:18:43.360Z,12.80
2019-02-18T04:19:18.736Z,11.40
2019-02-18T04:19:54.135Z,11.20
2019-02-18T04:20:29.343Z,11.30
2019-02-18T04:21:04.646Z,11.80
2019-02-18T04:21:40.297Z,11.80
2019-02-18T04:22:15.782Z,12.00
2019-02-18T04:22:50.902Z,12.20
2019-02-18T04:23:26.289Z,11.70
2019-02-18T04:24:01.818Z,11.90
2019-02-18T04:24:37.121Z,12.10
2019-02-18T04:25:12.326Z,11.60
2019-02-18T04:25:47.842Z,12.50
2019-02-18T04:26:23.125Z,13.00
2019-02-18T04:26:58.590Z,12.00
2019-02-18T04:27:33.710Z,11.80
2019-02-18T04:28:08.989Z,12.10
2019-02-18T04:28:44.473Z,12.50
2019-02-18T04:29:19.861Z,12.20
2019-02-18T04:29:54.981Z,12.20
2019-02-18T04:30:30.475Z,11.90
2019-02-18T04:31:05.809Z,11.60
2019-02-18T04:31:41.325Z,12.70
2019-02-18T04:32:16.541Z,12.60
2019-02-18T04:32:51.957Z,12.50
2019-02-18T04:33:27.150Z,12.00
2019-02-18T04:34:02.661Z,11.90
2019-02-18T04:34:37.976Z,12.20
2019-02-18T04:35:13.481Z,12.60
2019-02-18T04:35:48.988Z,12.30
2019-02-18T04:36:24.588Z,12.60
2019-02-18T04:36:59.911Z,12.50
2019-02-18T04:37:35.311Z,12.70
2019-02-18T04:38:10.811Z,12.30
2019-02-18T04:38:53.878Z,11.80
2019-02-18T04:39:21.395Z,11.90
2019-02-18T04:39:56.747Z,11.90
2019-02-18T04:40:32.141Z,11.60
2019-02-18T04:41:07.348Z,11.50
2019-02-18T04:41:42.438Z,11.30
2019-02-18T04:42:18.050Z,12.50
2019-02-18T04:42:53.884Z,12.70
2019-02-18T04:43:29.269Z,12.50
2019-02-18T04:44:04.690Z,12.40
2019-02-18T04:44:40.104Z,11.60
2019-02-18T04:45:15.728Z,11.80
2019-02-18T04:45:51.069Z,12.60
2019-02-18T04:46:26.449Z,11.50
2019-02-18T04:47:01.780Z,12.20
2019-02-18T04:47:36.966Z,14.10
2019-02-18T04:48:12.517Z,12.50
2019-02-18T04:48:47.796Z,11.30
2019-02-18T04:49:22.925Z,11.70
2019-02-18T04:49:58.348Z,12.10
2019-02-18T04:50:33.640Z,13.20
2019-02-18T04:51:08.846Z,12.90
2019-02-18T04:51:44.029Z,12.20
2019-02-18T04:52:19.323Z,12.90
2019-02-18T04:52:54.630Z,12.80
2019-02-18T04:53:30.169Z,13.70
2019-02-18T04:54:05.351Z,13.90
2019-02-18T04:54:40.582Z,12.90
2019-02-18T04:55:15.857Z,12.10
2019-02-18T04:55:51.178Z,12.60
2019-02-18T04:56:26.158Z,14.00
2019-02-18T04:57:01.578Z,13.70
2019-02-18T04:57:36.973Z,12.70
2019-02-18T04:58:12.289Z,12.70
2019-02-18T04:58:47.648Z,13.40
2019-02-18T04:59:23.004Z,13.60
2019-02-18T04:59:58.402Z,12.70
2019-02-18T05:00:33.702Z,12.70
2019-02-18T05:01:08.987Z,12.40
2019-02-18T05:01:44.150Z,11.80
2019-02-18T05:02:19.324Z,13.00
2019-02-18T05:02:54.630Z,14.00
2019-02-18T05:03:30.230Z,13.30
2019-02-18T05:04:05.577Z,12.00
2019-02-18T05:04:40.925Z,13.50
2019-02-18T05:05:16.347Z,14.00
2019-02-18T05:05:51.671Z,14.60
2019-02-18T05:06:27.311Z,15.00
2019-02-18T05:07:02.594Z,13.50
2019-02-18T05:07:37.916Z,12.40
2019-02-18T05:08:13.100Z,13.00
2019-02-18T05:08:48.348Z,13.40
2019-02-18T05:09:23.786Z,13.20
2019-02-18T05:09:59.062Z,12.30
2019-02-18T05:10:34.447Z,11.50
2019-02-18T05:11:09.665Z,13.10
2019-02-18T05:11:44.971Z,13.90
2019-02-18T05:12:20.483Z,13.20
2019-02-18T05:12:56.270Z,13.80
2019-02-18T05:13:31.584Z,14.10
2019-02-18T05:14:06.915Z,13.30
2019-02-18T05:14:42.426Z,12.90
2019-02-18T05:15:17.850Z,13.40
2019-02-18T05:15:53.262Z,13.20
2019-02-18T05:16:28.665Z,12.70
2019-02-18T05:17:03.878Z,13.30
2019-02-18T05:17:39.264Z,13.50
2019-02-18T05:18:14.784Z,13.20
2019-02-18T05:18:50.276Z,13.00
2019-02-18T05:19:25.726Z,12.20
2019-02-18T05:20:00.821Z,12.90
2019-02-18T05:20:35.950Z,13.40
2019-02-18T05:21:11.151Z,13.60
2019-02-18T05:21:46.462Z,12.90
2019-02-18T05:22:21.637Z,12.70
2019-02-18T05:22:56.748Z,13.30
2019-02-18T05:23:32.343Z,12.30
2019-02-18T05:24:07.792Z,12.40
2019-02-18T05:24:43.393Z,12.50
2019-02-18T05:25:18.724Z,12.50
2019-02-18T05:25:54.411Z,12.30
2019-02-18T05:26:29.893Z,12.10
2019-02-18T05:27:05.184Z,12.10
2019-02-18T05:27:40.515Z,12.70
2019-02-18T05:28:15.993Z,12.10
2019-02-18T05:28:51.400Z,12.00
2019-02-18T05:29:26.887Z,13.00
2019-02-18T05:30:02.334Z,12.90
2019-02-18T05:30:37.838Z,12.50
2019-02-18T05:31:13.143Z,12.30
2019-02-18T05:31:48.445Z,12.70
2019-02-18T05:32:24.086Z,12.40
2019-02-18T05:32:59.483Z,12.10
2019-02-18T05:33:34.900Z,12.20
2019-02-18T05:34:10.111Z,12.70
2019-02-18T05:34:45.439Z,12.80
2019-02-18T05:35:20.838Z,12.70
2019-02-18T05:35:56.292Z,12.80
2019-02-18T05:36:31.691Z,12.60
2019-02-18T05:37:07.018Z,12.00
2019-02-18T05:37:42.303Z,12.80
2019-02-18T05:38:17.607Z,13.00
2019-02-18T05:38:53.041Z,12.80
2019-02-18T05:39:28.367Z,12.60
2019-02-18T05:40:03.662Z,12.50
2019-02-18T05:40:39.051Z,13.30
2019-02-18T05:41:14.044Z,12.70
2019-02-18T05:41:49.550Z,12.70
2019-02-18T05:42:24.843Z,12.20
2019-02-18T05:43:00.061Z,11.50
2019-02-18T05:43:35.439Z,12.70
2019-02-18T05:44:10.658Z,12.70
2019-02-18T05:44:46.239Z,12.90
2019-02-18T05:45:21.566Z,13.20
2019-02-18T05:45:57.069Z,13.40
2019-02-18T05:46:32.490Z,12.80
2019-02-18T05:47:07.920Z,11.80
2019-02-18T05:47:43.633Z,12.00
2019-02-18T05:48:18.823Z,12.10
2019-02-18T05:48:54.246Z,12.20
2019-02-18T05:49:29.350Z,13.00
2019-02-18T05:50:04.983Z,12.50
2019-02-18T05:50:40.060Z,12.40
2019-02-18T05:51:15.630Z,12.70
2019-02-18T05:51:51.111Z,12.80
2019-02-18T05:52:26.641Z,13.50
2019-02-18T05:53:02.544Z,12.30
2019-02-18T05:53:37.664Z,12.30
2019-02-18T05:54:13.047Z,13.10
2019-02-18T05:54:48.353Z,12.20
2019-02-18T05:55:23.751Z,11.70
2019-02-18T05:55:59.369Z,12.70
2019-02-18T05:56:34.802Z,13.00
2019-02-18T05:57:10.222Z,13.10
2019-02-18T05:57:46.039Z,13.30
2019-02-18T05:58:21.455Z,12.80
2019-02-18T05:58:56.673Z,12.50
2019-02-18T05:59:32.207Z,11.90
2019-02-18T06:00:07.401Z,11.30
2019-02-18T06:00:42.701Z,11.70
2019-02-18T06:01:18.281Z,12.70
2019-02-18T06:01:53.428Z,13.40
2019-02-18T06:02:28.704Z,13.60
2019-02-18T06:03:04.125Z,13.10
2019-02-18T06:03:39.210Z,13.50
2019-02-18T06:04:14.433Z,12.80
2019-02-18T06:04:49.508Z,13.10
2019-02-18T06:05:24.729Z,13.50
2019-02-18T06:05:59.918Z,13.10
2019-02-18T06:06:35.119Z,12.50
2019-02-18T06:07:10.668Z,12.90
2019-02-18T06:07:46.218Z,12.00
2019-02-18T06:08:21.498Z,11.20
2019-02-18T06:08:56.910Z,11.00
2019-02-18T06:09:32.119Z,12.40
2019-02-18T06:10:07.546Z,11.60
2019-02-18T06:10:42.853Z,11.10
2019-02-18T06:11:18.363Z,11.90
2019-02-18T06:11:53.739Z,11.80
2019-02-18T06:12:28.990Z,12.10
2019-02-18T06:13:04.678Z,12.50
2019-02-18T06:13:39.929Z,12.20
2019-02-18T06:14:15.007Z,11.30
2019-02-18T06:14:50.335Z,11.50
2019-02-18T06:15:25.534Z,11.40
2019-02-18T06:16:00.957Z,11.70
2019-02-18T06:16:36.435Z,12.20
2019-02-18T06:17:11.857Z,12.10
2019-02-18T06:17:47.174Z,13.00
2019-02-18T06:18:22.385Z,12.90
2019-02-18T06:18:57.665Z,12.00
2019-02-18T06:19:32.875Z,11.30
2019-02-18T06:20:08.285Z,11.90
2019-02-18T06:20:43.617Z,13.50
2019-02-18T06:21:19.001Z,13.90
2019-02-18T06:21:54.308Z,13.30
2019-02-18T06:22:29.783Z,11.40
2019-02-18T06:23:05.241Z,12.00
2019-02-18T06:23:40.827Z,11.50
2019-02-18T06:24:16.056Z,11.60
2019-02-18T06:24:51.169Z,13.30
2019-02-18T06:25:26.871Z,13.50
2019-02-18T06:26:02.170Z,12.50
2019-02-18T06:26:37.681Z,12.30
2019-02-18T06:27:12.771Z,12.40
2019-02-18T06:27:48.296Z,12.70
2019-02-18T06:28:23.916Z,13.30
2019-02-18T06:28:59.323Z,13.20
2019-02-18T06:29:35.806Z,13.20
2019-02-18T06:30:11.324Z,14.00
2019-02-18T06:30:46.907Z,14.60
2019-02-18T06:31:22.340Z,14.30
2019-02-18T06:31:57.721Z,14.30
2019-02-18T06:32:32.960Z,14.00
2019-02-18T06:33:08.334Z,13.50
2019-02-18T06:33:43.687Z,13.70
2019-02-18T06:34:18.890Z,14.40
2019-02-18T06:34:54.124Z,13.50
2019-02-18T06:35:29.818Z,12.30
2019-02-18T06:36:05.230Z,13.50
2019-02-18T06:36:40.915Z,14.40
2019-02-18T06:37:16.231Z,12.70
2019-02-18T06:37:51.516Z,14.10
2019-02-18T06:38:26.644Z,14.30
2019-02-18T06:39:01.880Z,14.10
2019-02-18T06:39:41.421Z,14.60
2019-02-18T06:40:12.626Z,14.70
2019-02-18T06:40:48.266Z,14.60
2019-02-18T06:41:23.547Z,13.70
2019-02-18T06:41:59.072Z,13.80
2019-02-18T06:42:34.563Z,14.60
2019-02-18T06:43:10.190Z,14.60
2019-02-18T06:43:45.482Z,14.20
2019-02-18T06:44:20.744Z,14.00
2019-02-18T06:44:55.927Z,14.50
2019-02-18T06:45:31.051Z,14.10
2019-02-18T06:46:06.253Z,13.60
2019-02-18T06:46:41.680Z,13.70
2019-02-18T06:47:17.092Z,14.30
2019-02-18T06:47:52.810Z,13.80
2019-02-18T06:48:28.097Z,14.90
2019-02-18T06:49:03.554Z,14.20
2019-02-18T06:49:38.880Z,13.00
2019-02-18T06:50:14.293Z,13.10
2019-02-18T06:50:49.667Z,13.70
2019-02-18T06:51:24.975Z,14.20
2019-02-18T06:52:00.088Z,13.60
2019-02-18T06:52:35.401Z,13.20
2019-02-18T06:53:10.780Z,13.90
2019-02-18T06:53:46.299Z,12.70
2019-02-18T06:54:21.695Z,12.50
2019-02-18T06:54:57.056Z,13.50
2019-02-18T06:55:32.537Z,12.60
2019-02-18T06:56:07.745Z,13.50
2019-02-18T06:56:43.432Z,12.20
2019-02-18T06:57:18.764Z,12.30
2019-02-18T06:57:54.734Z,12.40
2019-02-18T06:58:29.860Z,11.60
2019-02-18T06:59:04.950Z,11.60
2019-02-18T06:59:40.473Z,12.40
2019-02-18T07:00:16.192Z,12.30
2019-02-18T07:00:51.437Z,11.90
2019-02-18T07:01:26.911Z,12.10
2019-02-18T07:02:02.430Z,12.20
2019-02-18T07:02:37.728Z,12.50
2019-02-18T07:03:13.148Z,12.30
2019-02-18T07:03:48.440Z,12.80
2019-02-18T07:04:23.846Z,13.00
2019-02-18T07:04:59.439Z,12.10
2019-02-18T07:05:34.770Z,11.70
2019-02-18T07:06:10.120Z,11.90
2019-02-18T07:06:45.678Z,12.90
2019-02-18T07:07:21.060Z,12.40
2019-02-18T07:07:56.472Z,12.30
2019-02-18T07:08:31.759Z,12.60
2019-02-18T07:09:06.878Z,12.90
2019-02-18T07:09:50.806Z,12.90
2019-02-18T07:10:17.504Z,12.90
2019-02-18T07:10:53.020Z,13.60
2019-02-18T07:11:28.343Z,12.70
2019-02-18T07:12:05.931Z,12.00
2019-02-18T07:12:40.937Z,11.90
2019-02-18T07:13:16.225Z,11.40
2019-02-18T07:13:51.757Z,12.00
2019-02-18T07:14:26.924Z,11.80
2019-02-18T07:15:02.328Z,12.10
2019-02-18T07:15:37.322Z,11.20
2019-02-18T07:16:12.575Z,12.90
2019-02-18T07:16:47.878Z,13.50
2019-02-18T07:17:23.507Z,12.10
2019-02-18T07:17:58.999Z,11.80
2019-02-18T07:18:34.611Z,11.00
2019-02-18T07:19:10.013Z,12.20
2019-02-18T07:19:45.234Z,12.50
2019-02-18T07:20:20.608Z,11.30
2019-02-18T07:20:56.123Z,11.20
2019-02-18T07:21:31.633Z,10.80
2019-02-18T07:22:07.454Z,10.50
2019-02-18T07:22:42.640Z,11.60
2019-02-18T07:23:17.748Z,11.10
2019-02-18T07:23:53.430Z,10.30
2019-02-18T07:24:29.147Z,10.50
2019-02-18T07:25:04.423Z,11.80
2019-02-18T07:25:39.837Z,12.00
2019-02-18T07:26:15.274Z,11.80
2019-02-18T07:26:50.500Z,10.90
2019-02-18T07:27:25.901Z,10.50
2019-02-18T07:28:01.035Z,11.80
2019-02-18T07:28:36.353Z,11.60
2019-02-18T07:29:11.896Z,10.40
2019-02-18T07:29:47.386Z,10.60
2019-02-18T07:30:22.885Z,11.20
2019-02-18T07:30:57.979Z,11.60
2019-02-18T07:31:33.440Z,11.30
2019-02-18T07:32:08.639Z,10.60
2019-02-18T07:32:43.993Z,11.80
2019-02-18T07:33:19.399Z,11.50
2019-02-18T07:33:54.719Z,12.10
2019-02-18T07:34:30.113Z,12.20
2019-02-18T07:35:05.238Z,12.30
2019-02-18T07:35:40.722Z,11.30
2019-02-18T07:36:15.694Z,10.90